Time;durP1;ratioP1;P1;durP2;ratioP2;P2;SDS_P1;SDS_P2;PMS_P1;PMS_P2;Temp;Humidity;BMP_temperature;BMP_pressure;BME280_temperature;BME280_humidity;BME280_pressure;Samples;Min_cycle;Max_cycle;Signal;HPM_P1;HPM_P2
2021/06/06 00:00:30;;;;;;;12.60;8.93;;;15.30;99.90;;;;;;5012875;28;20433;-83
2021/06/06 00:02:56;;;;;;;15.88;9.05;;;15.30;99.90;;;;;;5011590;28;20018;-84
2021/06/06 00:05:32;;;;;;;20.70;9.43;;;15.30;99.90;;;;;;5027853;28;20022;-82
2021/06/06 00:07:58;;;;;;;17.25;9.40;;;15.30;99.90;;;;;;5011270;28;20497;-83
2021/06/06 00:10:23;;;;;;;17.60;10.68;;;15.30;99.90;;;;;;5011473;28;20034;-83
2021/06/06 00:12:49;;;;;;;12.00;9.05;;;15.30;99.90;;;;;;5012772;28;20123;-83
2021/06/06 00:15:18;;;;;;;12.35;8.95;;;15.30;99.90;;;;;;5011214;28;20478;-83
2021/06/06 00:17:43;;;;;;;33.95;10.07;;;15.30;99.90;;;;;;5012227;28;20038;-83
2021/06/06 00:20:11;;;;;;;15.70;9.32;;;15.30;99.90;;;;;;5011248;28;20049;-83
2021/06/06 00:22:38;;;;;;;20.27;9.20;;;15.30;99.90;;;;;;5012558;28;20068;-82
2021/06/06 00:25:10;;;;;;;13.07;10.23;;;15.40;99.90;;;;;;5011073;28;20224;-82
2021/06/06 00:27:35;;;;;;;14.00;9.05;;;15.30;99.90;;;;;;5010916;28;20022;-83
2021/06/06 00:30:03;;;;;;;13.35;9.85;;;15.40;99.90;;;;;;5011079;28;20032;-83
2021/06/06 00:32:28;;;;;;;11.75;9.50;;;15.30;99.90;;;;;;5011154;28;20051;-82
2021/06/06 00:34:54;;;;;;;15.57;9.70;;;15.40;99.90;;;;;;5010909;28;20025;-83
2021/06/06 00:37:20;;;;;;;13.18;8.68;;;15.30;99.90;;;;;;5010594;28;20029;-83
2021/06/06 00:39:45;;;;;;;13.40;8.55;;;15.40;99.90;;;;;;5011015;28;20057;-83
2021/06/06 00:42:15;;;;;;;12.13;8.30;;;15.30;99.90;;;;;;5010681;28;20025;-83
2021/06/06 00:44:40;;;;;;;12.23;8.75;;;15.40;99.90;;;;;;5011874;28;20030;-82
2021/06/06 00:47:06;;;;;;;13.00;9.07;;;15.40;99.90;;;;;;5010883;28;20022;-83
2021/06/06 00:49:32;;;;;;;14.30;8.98;;;15.30;99.90;;;;;;5012241;28;20041;-83
2021/06/06 00:51:59;;;;;;;10.77;8.60;;;15.30;99.90;;;;;;5010564;28;20030;-82
2021/06/06 00:54:27;;;;;;;13.05;8.82;;;15.30;99.90;;;;;;5010821;28;20040;-82
2021/06/06 00:57:05;;;;;;;11.63;7.50;;;15.20;99.90;;;;;;5010857;28;20026;-82
2021/06/06 00:59:33;;;;;;;17.98;7.75;;;15.30;99.90;;;;;;5010498;28;20026;-82
2021/06/06 01:01:59;;;;;;;9.55;7.70;;;15.30;99.90;;;;;;5010796;28;20380;-82
2021/06/06 01:04:24;;;;;;;11.73;7.38;;;15.30;99.90;;;;;;5010611;28;20033;-82
2021/06/06 01:06:52;;;;;;;11.57;8.00;;;15.30;99.90;;;;;;5011697;28;20026;-83
2021/06/06 01:09:21;;;;;;;15.13;8.30;;;15.30;99.90;;;;;;5012022;28;20022;-82
2021/06/06 01:12:09;;;;;;;11.38;7.38;;;15.20;99.90;;;;;;5010600;28;20655;-82
2021/06/06 01:15:09;;;;;;;13.75;8.38;;;15.20;99.90;;;;;;5011835;28;20026;-83
2021/06/06 01:17:34;;;;;;;8.93;7.07;;;15.20;99.90;;;;;;5008259;28;20131;-82
2021/06/06 01:20:07;;;;;;;13.00;9.10;;;15.20;99.90;;;;;;5011665;28;20057;-83
2021/06/06 01:23:05;;;;;;;12.45;8.18;;;15.10;99.90;;;;;;5011595;28;20065;-82
2021/06/06 01:25:35;;;;;;;16.27;8.48;;;15.10;99.90;;;;;;5010410;28;20124;-83
2021/06/06 01:28:13;;;;;;;18.70;8.45;;;15.10;99.90;;;;;;5011507;28;20038;-82
2021/06/06 01:30:45;;;;;;;11.90;8.23;;;15.10;99.90;;;;;;5010487;28;20124;-82
2021/06/06 01:33:23;;;;;;;14.18;7.75;;;15.20;99.90;;;;;;5010626;28;20076;-83
2021/06/06 01:35:57;;;;;;;9.75;7.32;;;15.30;99.90;;;;;;5026788;28;20033;-82
2021/06/06 01:38:30;;;;;;;14.15;8.82;;;15.10;99.90;;;;;;5011488;28;20034;-83
2021/06/06 01:41:00;;;;;;;28.92;9.65;;;15.10;99.90;;;;;;5011578;28;20032;-83
2021/06/06 01:43:34;;;;;;;13.93;8.02;;;15.30;99.90;;;;;;5009901;28;20482;-82
2021/06/06 01:46:07;;;;;;;13.30;8.02;;;15.10;99.90;;;;;;5010203;28;20022;-82
2021/06/06 01:48:36;;;;;;;12.37;7.20;;;15.00;99.90;;;;;;5010111;28;20117;-83
2021/06/06 01:51:09;;;;;;;12.20;8.43;;;15.10;99.90;;;;;;5011355;28;20029;-82
2021/06/06 01:53:38;;;;;;;10.98;7.07;;;15.10;99.90;;;;;;5011332;28;20022;-82
2021/06/06 01:56:06;;;;;;;18.77;7.40;;;15.00;99.90;;;;;;5013230;28;20505;-82
2021/06/06 01:58:33;;;;;;;12.80;8.23;;;15.00;99.90;;;;;;5014851;28;20026;-83
2021/06/06 02:01:11;;;;;;;13.52;8.00;;;14.90;99.90;;;;;;5015133;28;20118;-82
2021/06/06 02:03:37;;;;;;;13.23;8.13;;;15.00;99.90;;;;;;5014396;28;20402;-82
2021/06/06 02:06:05;;;;;;;13.25;8.15;;;14.90;99.90;;;;;;5013588;28;20044;-83
2021/06/06 02:08:33;;;;;;;12.05;8.25;;;14.90;99.90;;;;;;5013405;28;20124;-83
2021/06/06 02:11:13;;;;;;;12.88;8.23;;;15.00;99.90;;;;;;5015098;28;20109;-82
2021/06/06 02:13:46;;;;;;;12.15;7.18;;;15.00;99.90;;;;;;5013659;28;20022;-82
2021/06/06 02:16:15;;;;;;;11.05;6.75;;;15.00;99.90;;;;;;5013754;28;20100;-82
2021/06/06 02:18:41;;;;;;;8.68;6.47;;;15.00;99.90;;;;;;5014371;28;20037;-82
2021/06/06 02:21:08;;;;;;;11.32;7.18;;;15.00;99.90;;;;;;5013510;28;20108;-82
2021/06/06 02:23:37;;;;;;;15.60;7.93;;;15.00;99.90;;;;;;5014456;28;20026;-82
2021/06/06 02:26:20;;;;;;;12.93;7.97;;;15.10;99.90;;;;;;5014489;28;20022;-82
2021/06/06 02:29:03;;;;;;;13.18;7.38;;;15.00;99.90;;;;;;5013988;28;20050;-82
2021/06/06 02:31:37;;;;;;;9.13;6.57;;;15.00;99.90;;;;;;4995020;28;20026;-82
2021/06/06 02:34:18;;;;;;;8.93;6.75;;;15.00;99.90;;;;;;4993570;28;20037;-83
2021/06/06 02:36:57;;;;;;;10.60;7.65;;;15.00;99.90;;;;;;4995424;28;20403;-82
2021/06/06 02:39:30;;;;;;;15.00;7.32;;;15.10;99.90;;;;;;5013117;28;20038;-82
2021/06/06 02:42:10;;;;;;;9.20;7.15;;;15.10;99.90;;;;;;5014428;28;20030;-82
2021/06/06 02:44:40;;;;;;;11.20;7.10;;;15.10;99.90;;;;;;5014149;28;20080;-82
2021/06/06 02:47:07;;;;;;;14.73;6.88;;;15.00;99.90;;;;;;5012677;28;20025;-82
2021/06/06 02:49:37;;;;;;;13.88;7.55;;;15.10;99.90;;;;;;5012955;28;20040;-82
2021/06/06 02:52:07;;;;;;;11.10;7.70;;;15.00;99.90;;;;;;5012715;28;20482;-83
2021/06/06 02:54:38;;;;;;;8.98;6.57;;;15.00;99.90;;;;;;5013926;28;20070;-82
2021/06/06 02:57:08;;;;;;;11.35;8.05;;;15.10;99.90;;;;;;5014058;28;20084;-82
2021/06/06 02:59:54;;;;;;;12.52;7.20;;;15.10;99.90;;;;;;5012656;28;20029;-82
2021/06/06 03:02:25;;;;;;;10.02;7.28;;;15.10;99.90;;;;;;5012043;28;20029;-82
2021/06/06 03:04:56;;;;;;;8.23;7.30;;;15.10;99.90;;;;;;5012556;28;20411;-82
2021/06/06 03:07:39;;;;;;;11.50;6.90;;;15.00;99.90;;;;;;5013055;28;20010;-82
2021/06/06 03:10:07;;;;;;;9.02;7.28;;;15.10;99.90;;;;;;5013850;28;20033;-82
2021/06/06 03:12:33;;;;;;;10.20;7.60;;;15.10;99.90;;;;;;5013662;28;20025;-82
2021/06/06 03:15:01;;;;;;;9.38;7.07;;;15.10;99.90;;;;;;5013608;28;20061;-82
2021/06/06 03:17:40;;;;;;;12.30;7.43;;;15.10;99.90;;;;;;5012083;28;20026;-82
2021/06/06 03:20:43;;;;;;;12.98;7.95;;;15.10;99.90;;;;;;5013924;28;20034;-83
2021/06/06 03:23:11;;;;;;;9.00;7.05;;;15.10;99.90;;;;;;5013213;28;20443;-82
2021/06/06 03:25:45;;;;;;;14.02;7.75;;;15.10;99.90;;;;;;5013322;28;20026;-82
2021/06/06 03:28:12;;;;;;;9.77;6.93;;;15.00;99.90;;;;;;5013208;28;20029;-82
2021/06/06 03:30:47;;;;;;;9.88;7.00;;;15.00;99.90;;;;;;5012322;28;20030;-82
2021/06/06 03:33:42;;;;;;;8.52;6.45;;;15.00;99.90;;;;;;5012172;28;20053;-82
2021/06/06 03:36:09;;;;;;;9.32;6.38;;;15.00;99.90;;;;;;5004380;28;20454;-82
2021/06/06 03:38:34;;;;;;;14.07;7.70;;;15.00;99.90;;;;;;5013124;28;20129;-83
2021/06/06 03:41:00;;;;;;;15.90;7.38;;;15.00;99.90;;;;;;5013271;28;20104;-82
2021/06/06 03:43:26;;;;;;;12.60;7.82;;;15.00;99.90;;;;;;5012042;28;20030;-82
2021/06/06 03:45:51;;;;;;;13.25;7.60;;;14.90;99.90;;;;;;5013075;28;20026;-82
2021/06/06 03:48:19;;;;;;;12.65;8.32;;;15.10;99.90;;;;;;5011573;28;20628;-82
2021/06/06 03:50:45;;;;;;;13.02;8.05;;;14.90;99.90;;;;;;5013268;28;20065;-82
2021/06/06 03:53:11;;;;;;;16.10;8.15;;;15.00;99.90;;;;;;5012840;28;20036;-82
2021/06/06 03:55:37;;;;;;;10.52;7.82;;;14.90;99.90;;;;;;5013071;28;20386;-83
2021/06/06 03:58:03;;;;;;;11.18;7.07;;;14.90;99.90;;;;;;5011511;28;20030;-82
2021/06/06 04:00:39;;;;;;;15.18;8.88;;;14.90;99.90;;;;;;5011527;28;20026;-82
2021/06/06 04:03:05;;;;;;;14.02;7.63;;;14.80;99.90;;;;;;5011758;28;20067;-82
2021/06/06 04:05:31;;;;;;;14.90;8.32;;;14.80;99.90;;;;;;5011566;28;20018;-81
2021/06/06 04:07:57;;;;;;;14.70;8.65;;;14.80;99.90;;;;;;5011193;28;20026;-82
2021/06/06 04:10:24;;;;;;;13.40;8.90;;;15.00;99.90;;;;;;5011539;28;20029;-82
2021/06/06 04:12:49;;;;;;;10.93;7.68;;;14.80;99.90;;;;;;5012701;28;20055;-82
2021/06/06 04:15:16;;;;;;;15.27;8.80;;;14.90;99.90;;;;;;5012590;28;20033;-82
2021/06/06 04:17:42;;;;;;;12.55;7.40;;;14.90;99.90;;;;;;5011786;28;20030;-82
2021/06/06 04:20:09;;;;;;;10.32;7.57;;;14.80;99.90;;;;;;5012587;28;20048;-82
2021/06/06 04:22:35;;;;;;;10.90;8.07;;;14.90;99.90;;;;;;5011946;28;20368;-82
2021/06/06 04:25:01;;;;;;;8.90;7.38;;;15.00;99.90;;;;;;5011200;28;20080;-82
2021/06/06 04:27:27;;;;;;;13.63;7.63;;;14.90;99.90;;;;;;5012183;28;20022;-82
2021/06/06 04:29:52;;;;;;;14.07;8.38;;;14.80;99.90;;;;;;5012514;28;20030;-82
2021/06/06 04:32:18;;;;;;;11.77;7.15;;;14.90;99.90;;;;;;5012464;28;20033;-82
2021/06/06 04:34:45;;;;;;;16.15;9.10;;;14.90;99.90;;;;;;5012322;28;20034;-82
2021/06/06 04:37:13;;;;;;;22.83;7.95;;;14.90;99.90;;;;;;5010775;28;20038;-82
2021/06/06 04:39:39;;;;;;;14.25;7.97;;;14.90;99.90;;;;;;5012263;28;20483;-82
2021/06/06 04:42:06;;;;;;;18.38;8.10;;;14.90;99.90;;;;;;5011040;28;20076;-82
2021/06/06 04:44:32;;;;;;;10.60;7.43;;;15.00;99.90;;;;;;5012056;28;20060;-82
2021/06/06 04:46:57;;;;;;;10.50;7.07;;;14.90;99.90;;;;;;5012260;28;20057;-82
2021/06/06 04:49:25;;;;;;;10.73;7.00;;;15.00;99.90;;;;;;5027196;28;20034;-82
2021/06/06 04:51:51;;;;;;;10.05;7.05;;;14.90;99.90;;;;;;5011973;28;20026;-82
2021/06/06 04:54:16;;;;;;;16.77;7.57;;;14.90;99.90;;;;;;5012041;28;20034;-82
2021/06/06 04:56:42;;;;;;;10.30;7.60;;;15.00;99.90;;;;;;5012075;28;20391;-82
2021/06/06 04:59:07;;;;;;;10.00;7.47;;;14.80;99.90;;;;;;5010528;28;20045;-82
2021/06/06 05:01:33;;;;;;;12.20;6.22;;;15.00;99.90;;;;;;5012103;28;20034;-82
2021/06/06 05:03:59;;;;;;;10.98;7.07;;;15.00;99.90;;;;;;5010705;28;20033;-82
2021/06/06 05:06:24;;;;;;;9.57;6.50;;;15.00;99.90;;;;;;5012208;28;20072;-82
2021/06/06 05:08:50;;;;;;;10.63;6.82;;;15.00;99.90;;;;;;5010457;28;20022;-82
2021/06/06 05:11:16;;;;;;;9.05;6.50;;;15.00;99.90;;;;;;5010728;28;20026;-82
2021/06/06 05:13:42;;;;;;;8.85;7.18;;;15.00;99.90;;;;;;5011830;28;20113;-82
2021/06/06 05:16:08;;;;;;;9.23;6.43;;;15.00;99.90;;;;;;5012021;28;20237;-82
2021/06/06 05:18:35;;;;;;;13.07;5.47;;;14.90;99.90;;;;;;5010515;28;20494;-82
2021/06/06 05:21:00;;;;;;;10.43;6.35;;;15.00;99.90;;;;;;5010657;28;20037;-82
2021/06/06 05:23:31;;;;;;;12.15;7.00;;;15.20;99.90;;;;;;5011440;28;20026;-82
2021/06/06 05:25:56;;;;;;;16.25;6.40;;;15.20;99.90;;;;;;5010469;28;20389;-82
2021/06/06 05:28:25;;;;;;;10.55;5.13;;;15.20;99.90;;;;;;5027286;28;20026;-82
2021/06/06 05:30:51;;;;;;;9.80;6.82;;;15.30;99.90;;;;;;5015675;28;20494;-82
2021/06/06 05:33:17;;;;;;;7.50;5.65;;;15.30;99.90;;;;;;5015653;28;20045;-82
2021/06/06 05:35:43;;;;;;;10.30;6.05;;;15.30;99.90;;;;;;5015481;28;20033;-82
2021/06/06 05:38:12;;;;;;;10.55;7.30;;;15.40;99.90;;;;;;5030435;28;20700;-82
2021/06/06 05:40:39;;;;;;;8.48;5.95;;;15.50;99.90;;;;;;5015508;28;20029;-82
2021/06/06 05:43:06;;;;;;;11.25;6.68;;;15.50;99.90;;;;;;5014303;28;20105;-82
2021/06/06 05:45:33;;;;;;;8.25;6.32;;;15.50;99.90;;;;;;5015333;28;20029;-82
2021/06/06 05:47:59;;;;;;;11.68;6.97;;;15.70;99.90;;;;;;5013859;28;20105;-82
2021/06/06 05:50:30;;;;;;;10.00;6.05;;;15.70;99.90;;;;;;5015426;28;20180;-83
2021/06/06 05:52:56;;;;;;;12.13;6.95;;;15.70;99.90;;;;;;5013529;28;20040;-82
2021/06/06 05:55:22;;;;;;;12.80;6.68;;;15.80;99.90;;;;;;5013901;28;20120;-82
2021/06/06 05:57:49;;;;;;;16.08;7.05;;;15.80;99.90;;;;;;5014955;28;20172;-82
2021/06/06 06:00:22;;;;;;;10.30;6.65;;;15.80;99.90;;;;;;5013881;28;20026;-83
2021/06/06 06:02:48;;;;;;;9.55;6.90;;;16.00;99.90;;;;;;5011916;28;20112;-83
2021/06/06 06:05:14;;;;;;;10.55;6.22;;;16.00;99.90;;;;;;5013402;28;20061;-82
2021/06/06 06:07:40;;;;;;;12.75;6.45;;;16.10;99.90;;;;;;5014440;28;20052;-82
2021/06/06 06:10:12;;;;;;;11.77;5.25;;;16.10;99.90;;;;;;5014825;28;20530;-83
2021/06/06 06:12:37;;;;;;;11.77;6.80;;;16.20;99.90;;;;;;5014940;28;20026;-82
2021/06/06 06:15:06;;;;;;;8.70;5.93;;;16.20;99.90;;;;;;5014724;28;20068;-82
2021/06/06 06:17:32;;;;;;;14.85;6.28;;;16.30;99.90;;;;;;5014493;28;20034;-82
2021/06/06 06:19:57;;;;;;;14.93;5.97;;;16.40;99.90;;;;;;5013427;28;20026;-82
2021/06/06 06:22:23;;;;;;;6.80;5.43;;;16.40;99.90;;;;;;5014085;28;20368;-82
2021/06/06 06:24:49;;;;;;;14.48;7.10;;;16.60;99.90;;;;;;5014478;28;20035;-83
2021/06/06 06:27:14;;;;;;;9.70;6.07;;;16.60;99.90;;;;;;5014512;28;20040;-82
2021/06/06 06:29:40;;;;;;;8.77;6.18;;;16.60;99.90;;;;;;5027037;28;20037;-81
2021/06/06 06:32:06;;;;;;;6.60;5.80;;;16.80;99.90;;;;;;5010172;28;20030;-81
2021/06/06 06:34:32;;;;;;;13.88;7.03;;;16.80;99.90;;;;;;5010261;28;21689;-83
2021/06/06 06:36:57;;;;;;;7.50;5.35;;;16.90;99.90;;;;;;5010215;28;20060;-83
2021/06/06 06:39:23;;;;;;;14.07;6.35;;;17.00;99.90;;;;;;5009063;28;20038;-83
2021/06/06 06:41:49;;;;;;;12.52;6.07;;;17.10;99.90;;;;;;5008413;28;20062;-82
2021/06/06 06:44:14;;;;;;;9.65;5.90;;;17.20;99.90;;;;;;5008834;28;20026;-82
2021/06/06 06:46:40;;;;;;;9.15;5.80;;;17.30;99.90;;;;;;5010528;28;20030;-82
2021/06/06 06:49:05;;;;;;;11.95;5.88;;;17.50;99.90;;;;;;5024758;28;20022;-81
2021/06/06 06:51:31;;;;;;;8.15;5.78;;;17.50;99.90;;;;;;5008521;28;20029;-82
2021/06/06 06:53:56;;;;;;;13.10;6.07;;;17.70;99.90;;;;;;5010076;28;20506;-81
2021/06/06 06:56:24;;;;;;;12.93;6.03;;;17.90;99.90;;;;;;5005610;28;20037;-82
2021/06/06 06:58:50;;;;;;;11.40;5.65;;;18.10;99.90;;;;;;5008855;28;20410;-82
2021/06/06 07:01:17;;;;;;;7.45;6.07;;;18.30;99.90;;;;;;5008827;28;20066;-82
2021/06/06 07:03:42;;;;;;;11.93;6.30;;;18.60;99.90;;;;;;5011871;28;20022;-81
2021/06/06 07:06:08;;;;;;;12.45;5.90;;;18.70;99.90;;;;;;5012020;28;20505;-79
2021/06/06 07:08:37;;;;;;;9.27;6.10;;;18.70;99.90;;;;;;5013667;28;20048;-78
2021/06/06 07:11:04;;;;;;;16.00;6.00;;;18.80;99.90;;;;;;5013733;28;20145;-78
2021/06/06 07:13:30;;;;;;;8.85;4.93;;;19.10;99.90;;;;;;5013871;28;20438;-78
2021/06/06 07:15:59;;;;;;;8.70;5.70;;;19.20;99.90;;;;;;5013249;28;20045;-79
2021/06/06 07:18:24;;;;;;;11.57;5.50;;;19.00;99.90;;;;;;5013669;28;20030;-78
2021/06/06 07:20:55;;;;;;;8.63;6.07;;;19.20;99.90;;;;;;5013529;28;20486;-78
2021/06/06 07:23:22;;;;;;;12.63;5.63;;;19.20;99.90;;;;;;5013191;28;20076;-78
2021/06/06 07:25:47;;;;;;;11.57;5.30;;;19.20;99.90;;;;;;5013276;28;20030;-78
2021/06/06 07:28:18;;;;;;;9.25;5.10;;;19.20;99.90;;;;;;5013661;28;20375;-78
2021/06/06 07:30:47;;;;;;;15.02;5.85;;;19.30;99.90;;;;;;5013501;28;20026;-79
2021/06/06 07:33:17;;;;;;;8.57;5.35;;;19.30;99.90;;;;;;5013185;28;20494;-79
2021/06/06 07:35:43;;;;;;;14.85;6.38;;;19.50;99.90;;;;;;5013236;28;20041;-79
2021/06/06 07:38:09;;;;;;;11.63;6.18;;;19.40;99.90;;;;;;5013301;28;20079;-79
2021/06/06 07:40:38;;;;;;;8.15;5.45;;;19.60;99.90;;;;;;5013183;28;20034;-79
2021/06/06 07:43:05;;;;;;;13.70;5.95;;;19.80;99.90;;;;;;5013087;28;20025;-79
2021/06/06 07:45:31;;;;;;;10.80;5.63;;;19.70;99.90;;;;;;5012975;28;20021;-79
2021/06/06 07:47:57;;;;;;;11.18;5.57;;;19.90;99.90;;;;;;5013029;28;20022;-78
2021/06/06 07:50:26;;;;;;;9.30;6.38;;;19.90;99.90;;;;;;5011845;28;20041;-78
2021/06/06 07:52:52;;;;;;;7.30;5.03;;;20.10;99.90;;;;;;5011825;28;20095;-78
2021/06/06 07:55:19;;;;;;;9.65;5.82;;;20.30;99.90;;;;;;5012912;28;20493;-79
2021/06/06 07:57:47;;;;;;;10.13;5.35;;;20.50;99.90;;;;;;5012945;28;20033;-79
2021/06/06 08:00:20;;;;;;;9.93;5.55;;;20.70;99.90;;;;;;5012574;28;20142;-79
2021/06/06 08:02:46;;;;;;;7.07;5.40;;;21.20;99.90;;;;;;5012711;28;20105;-79
2021/06/06 08:05:13;;;;;;;8.93;5.70;;;21.60;99.90;;;;;;5011017;28;20125;-78
2021/06/06 08:07:38;;;;;;;8.50;5.15;;;21.80;99.90;;;;;;5011252;28;20033;-79
2021/06/06 08:10:07;;;;;;;10.75;5.93;;;21.90;99.90;;;;;;5011550;28;20030;-78
2021/06/06 08:12:32;;;;;;;15.23;5.03;;;21.70;99.90;;;;;;5010888;28;20032;-79
2021/06/06 08:14:58;;;;;;;8.57;5.00;;;21.50;99.90;;;;;;5027589;28;20026;-78
2021/06/06 08:17:23;;;;;;;12.30;4.80;;;21.60;99.90;;;;;;5012590;28;20033;-79
2021/06/06 08:19:49;;;;;;;10.50;4.95;;;21.70;99.90;;;;;;5012399;28;20045;-79
2021/06/06 08:22:15;;;;;;;6.78;4.93;;;21.60;99.90;;;;;;5012108;28;20075;-78
2021/06/06 08:24:41;;;;;;;5.72;4.80;;;21.70;99.90;;;;;;5011146;28;20022;-78
2021/06/06 08:27:07;;;;;;;6.90;4.63;;;21.90;99.90;;;;;;5011089;28;20022;-79
2021/06/06 08:29:33;;;;;;;9.80;5.35;;;22.00;99.90;;;;;;5012535;28;20149;-79
2021/06/06 08:31:59;;;;;;;6.85;4.50;;;22.10;99.90;;;;;;5012297;28;20546;-79
2021/06/06 08:34:26;;;;;;;6.28;4.82;;;22.30;99.90;;;;;;5011764;28;20025;-79
2021/06/06 08:36:53;;;;;;;7.53;4.72;;;22.50;99.90;;;;;;5010842;28;20034;-78
2021/06/06 08:39:22;;;;;;;12.30;5.95;;;22.80;99.90;;;;;;5012312;28;20026;-79
2021/06/06 08:41:51;;;;;;;5.40;4.20;;;22.70;99.90;;;;;;5012380;28;20022;-78
2021/06/06 08:44:22;;;;;;;13.00;5.10;;;22.70;99.90;;;;;;5011641;28;20021;-80
2021/06/06 08:47:04;;;;;;;8.20;5.45;;;23.00;99.90;;;;;;5012029;28;20045;-80
2021/06/06 08:49:39;;;;;;;10.05;4.53;;;22.80;99.90;;;;;;5012186;28;20036;-80
2021/06/06 08:52:17;;;;;;;8.90;4.40;;;22.60;99.90;;;;;;5011858;28;20100;-79
2021/06/06 08:55:14;;;;;;;10.20;4.72;;;22.60;99.90;;;;;;5011859;28;20525;-79
2021/06/06 08:57:53;;;;;;;11.75;5.15;;;22.90;99.90;;;;;;4976397;28;20060;-79
2021/06/06 09:00:27;;;;;;;11.45;5.20;;;23.10;99.90;;;;;;5012038;28;20044;-79
2021/06/06 09:02:59;;;;;;;5.90;4.55;;;23.40;99.90;;;;;;5010643;28;20390;-79
2021/06/06 09:05:35;;;;;;;8.38;4.63;;;23.60;99.90;;;;;;5017088;28;20034;-79
2021/06/06 09:08:02;;;;;;;8.25;5.45;;;23.60;99.90;;;;;;5016904;28;20104;-80
2021/06/06 09:10:32;;;;;;;14.02;5.53;;;23.30;99.90;;;;;;5016968;28;20030;-79
2021/06/06 09:12:59;;;;;;;10.20;5.18;;;23.40;99.90;;;;;;5016734;28;20022;-78
2021/06/06 09:15:27;;;;;;;6.40;5.03;;;23.40;99.90;;;;;;5014923;28;20038;-79
2021/06/06 09:17:59;;;;;;;6.22;4.97;;;23.40;99.90;;;;;;5014574;28;20026;-79
2021/06/06 09:20:41;;;;;;;6.82;4.60;;;23.40;99.90;;;;;;5012835;28;20026;-78
2021/06/06 09:23:18;;;;;;;14.27;5.47;;;23.80;99.90;;;;;;5013939;28;20026;-79
2021/06/06 09:25:46;;;;;;;6.15;4.50;;;23.80;99.90;;;;;;5014371;28;20028;-79
2021/06/06 09:28:27;;;;;;;13.55;4.90;;;23.80;99.90;;;;;;5013376;28;20113;-78
2021/06/06 09:31:19;;;;;;;8.43;4.65;;;23.60;99.90;;;;;;5006429;28;20556;-78
2021/06/06 09:33:57;;;;;;;9.02;4.95;;;23.70;99.90;;;;;;5007690;28;20018;-79
2021/06/06 09:36:23;;;;;;;7.80;5.22;;;23.80;99.90;;;;;;5013884;28;20034;-79
2021/06/06 09:39:10;;;;;;;8.32;5.10;;;23.40;99.90;;;;;;5012754;28;20026;-79
2021/06/06 09:41:59;;;;;;;7.80;5.13;;;23.40;99.90;;;;;;5017277;28;20053;-80
2021/06/06 09:44:29;;;;;;;8.05;4.82;;;23.60;99.90;;;;;;5014040;28;20060;-79
2021/06/06 09:47:07;;;;;;;7.22;4.97;;;23.30;99.90;;;;;;5017089;28;20109;-80
2021/06/06 09:49:35;;;;;;;10.18;4.80;;;23.20;99.90;;;;;;5018278;28;20072;-80
2021/06/06 09:52:21;;;;;;;9.77;5.00;;;23.20;99.90;;;;;;5017866;28;20025;-81
2021/06/06 09:54:52;;;;;;;8.50;4.63;;;23.30;99.90;;;;;;5016694;28;20022;-80
2021/06/06 09:57:33;;;;;;;7.22;4.65;;;23.30;99.90;;;;;;5018197;28;20028;-80
2021/06/06 10:00:07;;;;;;;8.98;5.30;;;23.40;99.90;;;;;;5016856;28;20037;-80
2021/06/06 10:02:38;;;;;;;7.00;4.10;;;23.30;99.90;;;;;;5016542;28;20030;-80
2021/06/06 10:05:12;;;;;;;8.57;5.82;;;23.30;99.90;;;;;;5017849;28;20038;-81
2021/06/06 10:07:43;;;;;;;10.23;5.70;;;23.30;99.90;;;;;;5017681;28;20026;-80
2021/06/06 10:10:18;;;;;;;10.88;5.95;;;23.30;99.90;;;;;;5016724;28;20033;-80
2021/06/06 10:12:47;;;;;;;12.73;6.97;;;23.40;99.90;;;;;;5017763;28;20165;-80
2021/06/06 10:15:35;;;;;;;8.93;5.85;;;23.40;99.90;;;;;;5015687;28;20506;-80
2021/06/06 10:18:09;;;;;;;7.75;5.50;;;23.40;99.90;;;;;;5014835;28;20032;-79
2021/06/06 10:20:39;;;;;;;8.80;6.03;;;23.60;99.90;;;;;;5014734;28;20022;-79
2021/06/06 10:23:20;;;;;;;5.95;4.53;;;23.60;99.90;;;;;;5014492;28;20033;-80
2021/06/06 10:26:02;;;;;;;5.13;4.00;;;23.80;99.90;;;;;;5014573;28;20030;-79
2021/06/06 10:28:35;;;;;;;16.15;4.38;;;23.60;99.90;;;;;;5013363;28;20018;-79
2021/06/06 10:31:09;;;;;;;9.90;4.25;;;23.40;99.90;;;;;;5014961;28;20018;-78
2021/06/06 10:33:46;;;;;;;5.32;4.20;;;23.30;99.90;;;;;;5014470;28;20609;-79
2021/06/06 10:36:15;;;;;;;9.38;5.10;;;23.20;99.90;;;;;;5013230;28;20034;-78
2021/06/06 10:38:41;;;;;;;7.13;4.82;;;23.10;99.90;;;;;;5014113;28;20120;-78
2021/06/06 10:41:22;;;;;;;7.80;5.18;;;22.90;99.90;;;;;;5014381;28;20109;-78
2021/06/06 10:44:05;;;;;;;8.23;4.20;;;22.80;99.90;;;;;;5012950;28;20057;-78
2021/06/06 10:46:43;;;;;;;7.28;5.10;;;22.50;99.90;;;;;;5014344;28;20057;-79
2021/06/06 10:49:29;;;;;;;7.10;4.50;;;22.40;99.90;;;;;;5013060;28;20193;-79
2021/06/06 10:52:04;;;;;;;6.57;4.28;;;22.10;99.90;;;;;;5013890;28;20018;-78
2021/06/06 10:54:50;;;;;;;5.95;4.10;;;22.20;99.90;;;;;;5013827;28;20379;-78
2021/06/06 10:57:25;;;;;;;12.00;4.93;;;21.90;99.90;;;;;;5012942;28;20052;-79
2021/06/06 10:59:53;;;;;;;11.55;5.15;;;21.80;99.90;;;;;;5014210;28;20084;-79
2021/06/06 11:02:33;;;;;;;14.05;5.60;;;21.60;99.90;;;;;;5014158;28;20014;-78
2021/06/06 11:05:22;;;;;;;12.02;4.82;;;21.60;99.90;;;;;;5013627;28;20026;-78
2021/06/06 11:07:48;;;;;;;11.93;5.00;;;21.40;99.90;;;;;;5012258;28;20485;-79
2021/06/06 11:10:16;;;;;;;13.50;5.63;;;21.20;99.90;;;;;;5012725;28;20041;-78
2021/06/06 11:12:44;;;;;;;9.40;6.32;;;21.10;99.90;;;;;;5012504;28;20030;-78
2021/06/06 11:15:38;;;;;;;21.88;6.10;;;21.10;99.90;;;;;;5013364;28;20607;-77
2021/06/06 11:18:08;;;;;;;11.27;5.50;;;20.90;99.90;;;;;;5013526;28;20033;-77
2021/06/06 11:20:49;;;;;;;6.25;4.75;;;20.80;99.90;;;;;;5013700;28;20038;-78
2021/06/06 11:23:36;;;;;;;14.45;7.15;;;20.80;99.90;;;;;;5012191;28;20487;-78
2021/06/06 11:26:22;;;;;;;9.20;5.68;;;20.90;99.90;;;;;;5013373;28;20084;-79
2021/06/06 11:28:49;;;;;;;10.30;5.57;;;20.90;99.90;;;;;;5013336;28;20072;-79
2021/06/06 11:31:32;;;;;;;9.30;5.80;;;20.90;99.90;;;;;;5013509;28;20037;-78
2021/06/06 11:34:21;;;;;;;11.20;5.97;;;21.00;99.90;;;;;;5012842;28;20049;-79
2021/06/06 11:36:47;;;;;;;7.32;5.53;;;20.90;99.90;;;;;;4993561;28;20117;-78
2021/06/06 11:39:31;;;;;;;6.80;6.07;;;21.20;99.90;;;;;;5002410;28;20104;-78
2021/06/06 11:42:01;;;;;;;12.15;6.50;;;21.30;99.90;;;;;;5013080;28;20033;-78
2021/06/06 11:44:38;;;;;;;9.00;5.43;;;21.60;99.90;;;;;;5013103;28;20033;-78
2021/06/06 11:47:10;;;;;;;7.55;5.88;;;22.10;99.90;;;;;;5013145;28;20069;-78
2021/06/06 11:49:51;;;;;;;12.07;6.22;;;22.50;99.90;;;;;;5012719;28;20081;-78
2021/06/06 11:52:23;;;;;;;7.68;5.05;;;22.60;99.90;;;;;;5013204;28;20030;-79
2021/06/06 11:55:00;;;;;;;12.65;5.82;;;22.80;99.90;;;;;;5012928;28;20486;-79
2021/06/06 11:57:50;;;;;;;13.13;5.38;;;22.90;99.90;;;;;;5012651;28;20034;-78
2021/06/06 12:00:36;;;;;;;8.15;5.57;;;23.00;99.90;;;;;;5012539;28;20053;-78
2021/06/06 12:03:14;;;;;;;9.57;5.80;;;23.10;99.90;;;;;;5013030;28;20359;-79
2021/06/06 12:05:56;;;;;;;9.77;5.63;;;23.00;99.90;;;;;;5012764;28;20025;-78
2021/06/06 12:08:36;;;;;;;13.75;5.50;;;23.00;99.90;;;;;;5012895;28;20014;-78
2021/06/06 12:11:08;;;;;;;13.20;6.85;;;22.80;99.90;;;;;;5012289;28;20030;-78
2021/06/06 12:13:39;;;;;;;12.33;6.17;;;22.60;99.90;;;;;;5012830;28;20105;-79
2021/06/06 12:16:27;;;;;;;15.02;6.18;;;22.40;99.90;;;;;;5012469;28;20109;-78
2021/06/06 12:19:07;;;;;;;9.95;7.80;;;22.20;99.90;;;;;;5011397;28;20033;-78
2021/06/06 12:21:37;;;;;;;9.88;6.53;;;22.00;99.90;;;;;;5012704;28;20483;-79
2021/06/06 12:24:16;;;;;;;15.35;7.28;;;22.00;99.90;;;;;;5012396;28;20229;-78
2021/06/06 12:26:46;;;;;;;10.45;7.28;;;21.90;99.90;;;;;;5011952;28;20048;-78
2021/06/06 12:29:12;;;;;;;10.40;7.43;;;21.80;99.90;;;;;;5012723;28;20029;-78
2021/06/06 12:31:44;;;;;;;11.23;6.97;;;21.80;99.90;;;;;;5011283;28;20022;-80
2021/06/06 12:34:12;;;;;;;13.80;6.82;;;21.60;99.90;;;;;;5010894;28;20578;-79
2021/06/06 12:36:40;;;;;;;9.52;6.70;;;21.50;99.90;;;;;;5010715;28;20509;-78
2021/06/06 12:39:08;;;;;;;10.02;7.00;;;21.40;99.90;;;;;;5011657;28;20030;-78
2021/06/06 12:41:43;;;;;;;11.77;7.82;;;21.30;99.90;;;;;;5011982;28;20029;-79
2021/06/06 12:44:11;;;;;;;16.85;7.22;;;21.00;99.90;;;;;;5010972;28;20065;-79
2021/06/06 12:46:51;;;;;;;13.25;7.50;;;21.00;99.90;;;;;;5011927;28;20112;-78
2021/06/06 12:49:34;;;;;;;13.30;8.00;;;20.80;99.90;;;;;;5012240;28;20046;-78
2021/06/06 12:52:04;;;;;;;14.40;7.63;;;20.80;99.90;;;;;;5011029;28;20424;-78
2021/06/06 12:54:38;;;;;;;13.15;7.03;;;20.90;99.90;;;;;;5011943;28;20029;-78
2021/06/06 12:57:08;;;;;;;10.45;7.07;;;20.60;99.90;;;;;;5011845;28;20026;-79
2021/06/06 12:59:35;;;;;;;14.05;7.97;;;20.60;99.90;;;;;;5012176;28;20137;-79